sensor_id;sensor_type;location;lat;lon;timestamp;temperature;humidity
77582;DHT22;66726;52.388;9.986;2023-07-09T00:00:03;23.10;65.00
77582;DHT22;66726;52.388;9.986;2023-07-09T00:02:43;23.00;66.10
77582;DHT22;66726;52.388;9.986;2023-07-09T00:05:18;22.90;66.40
77582;DHT22;66726;52.388;9.986;2023-07-09T00:07:52;23.00;66.30
77582;DHT22;66726;52.388;9.986;2023-07-09T00:10:24;22.90;66.50
77582;DHT22;66726;52.388;9.986;2023-07-09T00:12:56;22.80;67.00
77582;DHT22;66726;52.388;9.986;2023-07-09T00:15:28;22.80;67.00
77582;DHT22;66726;52.388;9.986;2023-07-09T00:18:00;22.70;66.80
77582;DHT22;66726;52.388;9.986;2023-07-09T00:20:32;22.60;67.10
77582;DHT22;66726;52.388;9.986;2023-07-09T00:23:05;22.70;67.10
77582;DHT22;66726;52.388;9.986;2023-07-09T00:25:37;22.70;67.20
77582;DHT22;66726;52.388;9.986;2023-07-09T00:28:15;22.60;67.20
77582;DHT22;66726;52.388;9.986;2023-07-09T00:30:49;22.60;67.60
77582;DHT22;66726;52.388;9.986;2023-07-09T00:33:21;22.60;67.60
77582;DHT22;66726;52.388;9.986;2023-07-09T00:36:00;22.60;68.20
77582;DHT22;66726;52.388;9.986;2023-07-09T00:38:38;22.40;67.90
77582;DHT22;66726;52.388;9.986;2023-07-09T00:41:18;22.30;68.10
77582;DHT22;66726;52.388;9.986;2023-07-09T00:43:53;22.30;68.50
77582;DHT22;66726;52.388;9.986;2023-07-09T00:49:46;22.30;68.70
77582;DHT22;66726;52.388;9.986;2023-07-09T00:52:31;22.20;68.90
77582;DHT22;66726;52.388;9.986;2023-07-09T00:55:12;22.20;68.90
77582;DHT22;66726;52.388;9.986;2023-07-09T00:57:48;22.20;68.50
77582;DHT22;66726;52.388;9.986;2023-07-09T01:00:36;22.10;68.80
77582;DHT22;66726;52.388;9.986;2023-07-09T01:03:20;22.10;68.80
77582;DHT22;66726;52.388;9.986;2023-07-09T01:05:58;22.00;69.30
77582;DHT22;66726;52.388;9.986;2023-07-09T01:08:32;21.90;69.10
77582;DHT22;66726;52.388;9.986;2023-07-09T01:11:13;21.80;69.80
77582;DHT22;66726;52.388;9.986;2023-07-09T01:13:50;21.80;70.00
77582;DHT22;66726;52.388;9.986;2023-07-09T01:16:26;21.70;70.00
77582;DHT22;66726;52.388;9.986;2023-07-09T01:19:00;21.80;70.90
77582;DHT22;66726;52.388;9.986;2023-07-09T01:21:33;21.80;71.10
77582;DHT22;66726;52.388;9.986;2023-07-09T01:24:45;21.80;70.60
77582;DHT22;66726;52.388;9.986;2023-07-09T01:27:24;21.70;70.60
77582;DHT22;66726;52.388;9.986;2023-07-09T01:29:58;21.60;71.30
77582;DHT22;66726;52.388;9.986;2023-07-09T01:32:32;21.50;71.60
77582;DHT22;66726;52.388;9.986;2023-07-09T01:35:05;21.50;71.50
77582;DHT22;66726;52.388;9.986;2023-07-09T01:37:40;21.40;72.20
77582;DHT22;66726;52.388;9.986;2023-07-09T01:40:18;21.50;71.90
77582;DHT22;66726;52.388;9.986;2023-07-09T01:43:02;21.40;71.70
77582;DHT22;66726;52.388;9.986;2023-07-09T01:45:36;21.40;72.10
77582;DHT22;66726;52.388;9.986;2023-07-09T01:48:09;21.40;72.20
77582;DHT22;66726;52.388;9.986;2023-07-09T01:50:45;21.40;72.00
77582;DHT22;66726;52.388;9.986;2023-07-09T01:53:23;21.40;72.50
77582;DHT22;66726;52.388;9.986;2023-07-09T01:56:00;21.40;72.20
77582;DHT22;66726;52.388;9.986;2023-07-09T01:58:33;21.30;72.50
77582;DHT22;66726;52.388;9.986;2023-07-09T02:01:05;21.20;72.50
77582;DHT22;66726;52.388;9.986;2023-07-09T02:03:36;21.20;72.30
77582;DHT22;66726;52.388;9.986;2023-07-09T02:06:08;21.10;72.70
77582;DHT22;66726;52.388;9.986;2023-07-09T02:08:41;21.00;73.40
77582;DHT22;66726;52.388;9.986;2023-07-09T02:11:14;20.90;73.70
77582;DHT22;66726;52.388;9.986;2023-07-09T02:13:46;20.90;73.50
77582;DHT22;66726;52.388;9.986;2023-07-09T02:16:18;20.80;73.90
77582;DHT22;66726;52.388;9.986;2023-07-09T02:18:49;20.80;74.00
77582;DHT22;66726;52.388;9.986;2023-07-09T02:21:21;20.70;74.10
77582;DHT22;66726;52.388;9.986;2023-07-09T02:23:58;20.70;74.20
77582;DHT22;66726;52.388;9.986;2023-07-09T02:26:31;20.70;75.20
77582;DHT22;66726;52.388;9.986;2023-07-09T02:29:03;20.60;74.80
77582;DHT22;66726;52.388;9.986;2023-07-09T02:31:35;20.70;74.10
77582;DHT22;66726;52.388;9.986;2023-07-09T02:34:08;20.70;74.20
77582;DHT22;66726;52.388;9.986;2023-07-09T02:36:40;20.70;74.10
77582;DHT22;66726;52.388;9.986;2023-07-09T02:39:13;20.70;74.30
77582;DHT22;66726;52.388;9.986;2023-07-09T02:41:47;20.70;74.40
77582;DHT22;66726;52.388;9.986;2023-07-09T02:44:20;20.70;75.20
77582;DHT22;66726;52.388;9.986;2023-07-09T02:46:52;20.50;75.30
77582;DHT22;66726;52.388;9.986;2023-07-09T02:49:24;20.40;75.20
77582;DHT22;66726;52.388;9.986;2023-07-09T02:51:56;20.30;75.50
77582;DHT22;66726;52.388;9.986;2023-07-09T02:54:28;20.30;75.60
77582;DHT22;66726;52.388;9.986;2023-07-09T02:57:01;20.30;75.50
77582;DHT22;66726;52.388;9.986;2023-07-09T02:59:34;20.20;75.60
77582;DHT22;66726;52.388;9.986;2023-07-09T03:02:06;20.20;75.80
77582;DHT22;66726;52.388;9.986;2023-07-09T03:04:38;20.20;76.00
77582;DHT22;66726;52.388;9.986;2023-07-09T03:07:10;20.20;77.50
77582;DHT22;66726;52.388;9.986;2023-07-09T03:09:42;20.10;77.10
77582;DHT22;66726;52.388;9.986;2023-07-09T03:12:15;20.10;77.00
77582;DHT22;66726;52.388;9.986;2023-07-09T03:14:49;20.10;77.00
77582;DHT22;66726;52.388;9.986;2023-07-09T03:17:21;20.10;77.00
77582;DHT22;66726;52.388;9.986;2023-07-09T03:19:53;20.00;77.40
77582;DHT22;66726;52.388;9.986;2023-07-09T03:22:25;19.90;77.50
77582;DHT22;66726;52.388;9.986;2023-07-09T03:24:57;19.90;77.50
77582;DHT22;66726;52.388;9.986;2023-07-09T03:27:30;19.90;77.70
77582;DHT22;66726;52.388;9.986;2023-07-09T03:30:02;19.90;78.00
77582;DHT22;66726;52.388;9.986;2023-07-09T03:32:35;19.80;78.30
77582;DHT22;66726;52.388;9.986;2023-07-09T03:35:07;19.80;78.20
77582;DHT22;66726;52.388;9.986;2023-07-09T03:37:40;19.80;78.30
77582;DHT22;66726;52.388;9.986;2023-07-09T03:40:19;19.80;78.40
77582;DHT22;66726;52.388;9.986;2023-07-09T03:42:54;19.70;78.50
77582;DHT22;66726;52.388;9.986;2023-07-09T03:45:26;19.70;78.90
77582;DHT22;66726;52.388;9.986;2023-07-09T03:47:58;19.70;79.00
77582;DHT22;66726;52.388;9.986;2023-07-09T03:50:30;19.60;79.40
77582;DHT22;66726;52.388;9.986;2023-07-09T03:53:03;19.70;79.50
77582;DHT22;66726;52.388;9.986;2023-07-09T03:55:35;19.70;79.50
77582;DHT22;66726;52.388;9.986;2023-07-09T03:58:08;19.70;79.70
77582;DHT22;66726;52.388;9.986;2023-07-09T04:00:40;19.70;79.30
77582;DHT22;66726;52.388;9.986;2023-07-09T04:03:13;19.70;79.30
77582;DHT22;66726;52.388;9.986;2023-07-09T04:05:46;19.70;80.00
77582;DHT22;66726;52.388;9.986;2023-07-09T04:08:19;19.70;80.00
77582;DHT22;66726;52.388;9.986;2023-07-09T04:10:52;19.60;80.10
77582;DHT22;66726;52.388;9.986;2023-07-09T04:13:29;19.60;80.70
77582;DHT22;66726;52.388;9.986;2023-07-09T04:16:01;19.50;81.10
77582;DHT22;66726;52.388;9.986;2023-07-09T04:18:34;19.60;81.20
77582;DHT22;66726;52.388;9.986;2023-07-09T04:21:06;19.60;81.30
77582;DHT22;66726;52.388;9.986;2023-07-09T04:23:38;19.70;80.80
77582;DHT22;66726;52.388;9.986;2023-07-09T04:26:09;19.60;81.10
77582;DHT22;66726;52.388;9.986;2023-07-09T04:28:46;19.60;81.60
77582;DHT22;66726;52.388;9.986;2023-07-09T04:31:17;19.60;81.70
77582;DHT22;66726;52.388;9.986;2023-07-09T04:33:47;19.60;82.00
77582;DHT22;66726;52.388;9.986;2023-07-09T04:36:21;19.70;82.40
77582;DHT22;66726;52.388;9.986;2023-07-09T04:38:53;19.70;82.50
77582;DHT22;66726;52.388;9.986;2023-07-09T04:41:25;19.60;82.60
77582;DHT22;66726;52.388;9.986;2023-07-09T04:43:58;19.60;83.20
77582;DHT22;66726;52.388;9.986;2023-07-09T04:46:30;19.60;83.00
77582;DHT22;66726;52.388;9.986;2023-07-09T04:49:02;19.60;82.20
77582;DHT22;66726;52.388;9.986;2023-07-09T04:51:35;19.70;82.70
77582;DHT22;66726;52.388;9.986;2023-07-09T04:54:07;19.70;82.00
77582;DHT22;66726;52.388;9.986;2023-07-09T04:56:39;19.70;81.40
77582;DHT22;66726;52.388;9.986;2023-07-09T04:59:14;19.70;81.30
77582;DHT22;66726;52.388;9.986;2023-07-09T05:01:46;19.70;81.20
77582;DHT22;66726;52.388;9.986;2023-07-09T05:04:18;19.70;80.70
77582;DHT22;66726;52.388;9.986;2023-07-09T05:06:49;19.70;80.90
77582;DHT22;66726;52.388;9.986;2023-07-09T05:09:21;19.80;81.40
77582;DHT22;66726;52.388;9.986;2023-07-09T05:11:53;19.80;80.60
77582;DHT22;66726;52.388;9.986;2023-07-09T05:14:27;19.80;80.40
77582;DHT22;66726;52.388;9.986;2023-07-09T05:16:59;19.80;81.00
77582;DHT22;66726;52.388;9.986;2023-07-09T05:19:32;19.90;81.10
77582;DHT22;66726;52.388;9.986;2023-07-09T05:22:05;19.80;81.30
77582;DHT22;66726;52.388;9.986;2023-07-09T05:24:37;19.90;81.10
77582;DHT22;66726;52.388;9.986;2023-07-09T05:27:09;19.90;80.80
77582;DHT22;66726;52.388;9.986;2023-07-09T05:29:42;20.00;81.20
77582;DHT22;66726;52.388;9.986;2023-07-09T05:32:14;20.00;81.00
77582;DHT22;66726;52.388;9.986;2023-07-09T05:34:46;20.00;81.20
77582;DHT22;66726;52.388;9.986;2023-07-09T05:37:18;20.10;81.60
77582;DHT22;66726;52.388;9.986;2023-07-09T05:39:50;20.10;81.90
77582;DHT22;66726;52.388;9.986;2023-07-09T05:42:22;20.20;81.40
77582;DHT22;66726;52.388;9.986;2023-07-09T05:44:55;20.20;81.50
77582;DHT22;66726;52.388;9.986;2023-07-09T05:47:28;20.20;82.00
77582;DHT22;66726;52.388;9.986;2023-07-09T05:50:00;20.30;82.20
77582;DHT22;66726;52.388;9.986;2023-07-09T05:52:32;20.30;81.80
77582;DHT22;66726;52.388;9.986;2023-07-09T05:55:04;20.30;81.80
77582;DHT22;66726;52.388;9.986;2023-07-09T05:57:37;20.30;81.80
77582;DHT22;66726;52.388;9.986;2023-07-09T06:00:12;20.30;81.80
77582;DHT22;66726;52.388;9.986;2023-07-09T06:02:45;20.40;83.00
77582;DHT22;66726;52.388;9.986;2023-07-09T06:05:17;20.40;82.00
77582;DHT22;66726;52.388;9.986;2023-07-09T06:07:50;20.50;82.30
77582;DHT22;66726;52.388;9.986;2023-07-09T06:10:22;20.50;82.00
77582;DHT22;66726;52.388;9.986;2023-07-09T06:12:54;20.60;82.40
77582;DHT22;66726;52.388;9.986;2023-07-09T06:15:28;20.60;81.90
77582;DHT22;66726;52.388;9.986;2023-07-09T06:18:00;20.70;81.80
77582;DHT22;66726;52.388;9.986;2023-07-09T06:20:32;20.70;82.20
77582;DHT22;66726;52.388;9.986;2023-07-09T06:23:03;20.80;81.50
77582;DHT22;66726;52.388;9.986;2023-07-09T06:25:37;20.80;81.90
77582;DHT22;66726;52.388;9.986;2023-07-09T06:28:10;20.90;82.30
77582;DHT22;66726;52.388;9.986;2023-07-09T06:30:43;20.90;82.10
77582;DHT22;66726;52.388;9.986;2023-07-09T06:33:17;21.00;81.70
77582;DHT22;66726;52.388;9.986;2023-07-09T06:35:52;21.00;81.50
77582;DHT22;66726;52.388;9.986;2023-07-09T06:38:26;21.10;81.40
77582;DHT22;66726;52.388;9.986;2023-07-09T06:40:58;21.10;82.10
77582;DHT22;66726;52.388;9.986;2023-07-09T06:43:30;21.20;81.50
77582;DHT22;66726;52.388;9.986;2023-07-09T06:46:02;21.30;81.80
77582;DHT22;66726;52.388;9.986;2023-07-09T06:48:35;21.30;82.70
77582;DHT22;66726;52.388;9.986;2023-07-09T06:51:07;21.40;83.80
77582;DHT22;66726;52.388;9.986;2023-07-09T06:53:39;21.40;82.10
77582;DHT22;66726;52.388;9.986;2023-07-09T06:56:16;21.50;82.50
77582;DHT22;66726;52.388;9.986;2023-07-09T06:58:48;21.60;82.30
77582;DHT22;66726;52.388;9.986;2023-07-09T07:01:21;21.70;81.60
77582;DHT22;66726;52.388;9.986;2023-07-09T07:03:53;21.70;84.10
77582;DHT22;66726;52.388;9.986;2023-07-09T07:06:25;21.80;81.40
77582;DHT22;66726;52.388;9.986;2023-07-09T07:08:57;21.90;79.80
77582;DHT22;66726;52.388;9.986;2023-07-09T07:11:29;22.00;79.10
77582;DHT22;66726;52.388;9.986;2023-07-09T07:14:01;22.10;78.70
77582;DHT22;66726;52.388;9.986;2023-07-09T07:16:34;22.20;77.70
77582;DHT22;66726;52.388;9.986;2023-07-09T07:19:06;22.20;77.40
77582;DHT22;66726;52.388;9.986;2023-07-09T07:21:38;22.30;79.10
77582;DHT22;66726;52.388;9.986;2023-07-09T07:24:10;22.40;78.40
77582;DHT22;66726;52.388;9.986;2023-07-09T07:26:42;22.50;77.00
77582;DHT22;66726;52.388;9.986;2023-07-09T07:29:14;22.50;79.70
77582;DHT22;66726;52.388;9.986;2023-07-09T07:31:47;22.60;78.70
77582;DHT22;66726;52.388;9.986;2023-07-09T07:34:19;22.70;78.40
77582;DHT22;66726;52.388;9.986;2023-07-09T07:36:51;22.70;78.90
77582;DHT22;66726;52.388;9.986;2023-07-09T07:39:23;22.90;75.60
77582;DHT22;66726;52.388;9.986;2023-07-09T07:41:56;23.00;74.70
77582;DHT22;66726;52.388;9.986;2023-07-09T07:44:28;23.10;74.50
77582;DHT22;66726;52.388;9.986;2023-07-09T07:47:01;23.20;75.20
77582;DHT22;66726;52.388;9.986;2023-07-09T07:49:33;23.20;77.10
77582;DHT22;66726;52.388;9.986;2023-07-09T07:52:07;23.30;76.60
77582;DHT22;66726;52.388;9.986;2023-07-09T07:54:39;23.30;77.60
77582;DHT22;66726;52.388;9.986;2023-07-09T07:57:12;23.50;75.20
77582;DHT22;66726;52.388;9.986;2023-07-09T07:59:46;23.50;77.20
77582;DHT22;66726;52.388;9.986;2023-07-09T08:02:19;23.60;74.50
77582;DHT22;66726;52.388;9.986;2023-07-09T08:04:53;23.70;77.10
77582;DHT22;66726;52.388;9.986;2023-07-09T08:07:25;23.80;76.30
77582;DHT22;66726;52.388;9.986;2023-07-09T08:09:56;23.90;73.80
77582;DHT22;66726;52.388;9.986;2023-07-09T08:12:28;24.00;74.40
77582;DHT22;66726;52.388;9.986;2023-07-09T08:15:00;24.00;77.50
77582;DHT22;66726;52.388;9.986;2023-07-09T08:17:34;24.10;75.30
77582;DHT22;66726;52.388;9.986;2023-07-09T08:20:09;24.20;74.70
77582;DHT22;66726;52.388;9.986;2023-07-09T08:22:41;24.30;73.70
77582;DHT22;66726;52.388;9.986;2023-07-09T08:25:13;24.50;70.80
77582;DHT22;66726;52.388;9.986;2023-07-09T08:27:45;24.60;72.60
77582;DHT22;66726;52.388;9.986;2023-07-09T08:30:16;24.70;70.10
77582;DHT22;66726;52.388;9.986;2023-07-09T08:32:50;24.70;72.50
77582;DHT22;66726;52.388;9.986;2023-07-09T08:35:22;24.90;70.60
77582;DHT22;66726;52.388;9.986;2023-07-09T08:38:04;25.00;70.60
77582;DHT22;66726;52.388;9.986;2023-07-09T08:40:38;25.20;68.30
77582;DHT22;66726;52.388;9.986;2023-07-09T08:43:20;25.40;68.10
77582;DHT22;66726;52.388;9.986;2023-07-09T08:46:05;25.50;66.50
77582;DHT22;66726;52.388;9.986;2023-07-09T08:48:47;25.50;67.90
77582;DHT22;66726;52.388;9.986;2023-07-09T08:51:24;25.60;68.50
77582;DHT22;66726;52.388;9.986;2023-07-09T08:54:02;25.70;67.30
77582;DHT22;66726;52.388;9.986;2023-07-09T08:56:41;25.80;67.10
77582;DHT22;66726;52.388;9.986;2023-07-09T08:59:17;25.90;67.20
77582;DHT22;66726;52.388;9.986;2023-07-09T09:01:53;26.00;68.90
77582;DHT22;66726;52.388;9.986;2023-07-09T09:04:35;26.10;65.00
77582;DHT22;66726;52.388;9.986;2023-07-09T09:07:13;26.10;68.50
77582;DHT22;66726;52.388;9.986;2023-07-09T09:10:00;26.30;67.30
77582;DHT22;66726;52.388;9.986;2023-07-09T09:12:38;26.40;66.30
77582;DHT22;66726;52.388;9.986;2023-07-09T09:15:19;26.60;65.80
77582;DHT22;66726;52.388;9.986;2023-07-09T09:17:54;26.80;62.40
77582;DHT22;66726;52.388;9.986;2023-07-09T09:20:31;26.80;66.60
77582;DHT22;66726;52.388;9.986;2023-07-09T09:23:12;26.90;61.70
77582;DHT22;66726;52.388;9.986;2023-07-09T09:25:47;27.00;64.30
77582;DHT22;66726;52.388;9.986;2023-07-09T09:28:42;27.10;62.40
77582;DHT22;66726;52.388;9.986;2023-07-09T09:31:17;27.30;61.80
77582;DHT22;66726;52.388;9.986;2023-07-09T09:33:50;27.40;61.60
77582;DHT22;66726;52.388;9.986;2023-07-09T09:36:26;27.40;63.40
77582;DHT22;66726;52.388;9.986;2023-07-09T09:39:03;27.50;61.20
77582;DHT22;66726;52.388;9.986;2023-07-09T09:41:38;27.70;59.30
77582;DHT22;66726;52.388;9.986;2023-07-09T09:44:18;27.80;56.70
77582;DHT22;66726;52.388;9.986;2023-07-09T09:46:55;27.90;57.60
77582;DHT22;66726;52.388;9.986;2023-07-09T09:49:29;28.10;57.30
77582;DHT22;66726;52.388;9.986;2023-07-09T09:52:12;28.20;57.80
77582;DHT22;66726;52.388;9.986;2023-07-09T09:54:51;28.30;54.80
77582;DHT22;66726;52.388;9.986;2023-07-09T09:57:27;28.50;53.30
77582;DHT22;66726;52.388;9.986;2023-07-09T10:00:00;28.60;56.90
77582;DHT22;66726;52.388;9.986;2023-07-09T10:02:41;28.60;54.30
77582;DHT22;66726;52.388;9.986;2023-07-09T10:05:15;28.80;54.20
77582;DHT22;66726;52.388;9.986;2023-07-09T10:07:59;28.90;54.50
77582;DHT22;66726;52.388;9.986;2023-07-09T10:10:34;28.90;55.90
77582;DHT22;66726;52.388;9.986;2023-07-09T10:13:15;29.20;54.50
77582;DHT22;66726;52.388;9.986;2023-07-09T10:16:01;29.30;54.40
77582;DHT22;66726;52.388;9.986;2023-07-09T10:18:44;29.30;52.20
77582;DHT22;66726;52.388;9.986;2023-07-09T10:21:29;29.40;54.50
77582;DHT22;66726;52.388;9.986;2023-07-09T10:24:31;29.30;56.60
77582;DHT22;66726;52.388;9.986;2023-07-09T10:27:12;29.50;53.40
77582;DHT22;66726;52.388;9.986;2023-07-09T10:30:03;29.60;53.60
77582;DHT22;66726;52.388;9.986;2023-07-09T10:33:01;29.70;52.10
77582;DHT22;66726;52.388;9.986;2023-07-09T10:35:43;29.90;51.40
77582;DHT22;66726;52.388;9.986;2023-07-09T10:38:36;30.00;50.20
77582;DHT22;66726;52.388;9.986;2023-07-09T10:41:19;30.00;55.10
77582;DHT22;66726;52.388;9.986;2023-07-09T10:43:59;30.20;54.00
77582;DHT22;66726;52.388;9.986;2023-07-09T10:46:39;30.30;52.10
77582;DHT22;66726;52.388;9.986;2023-07-09T10:49:15;30.40;53.10
77582;DHT22;66726;52.388;9.986;2023-07-09T10:51:50;30.40;52.60
77582;DHT22;66726;52.388;9.986;2023-07-09T10:54:32;30.60;52.00
77582;DHT22;66726;52.388;9.986;2023-07-09T10:57:19;30.80;51.60
77582;DHT22;66726;52.388;9.986;2023-07-09T10:59:58;30.80;51.60
77582;DHT22;66726;52.388;9.986;2023-07-09T11:02:34;30.80;53.60
77582;DHT22;66726;52.388;9.986;2023-07-09T11:05:08;31.20;50.40
77582;DHT22;66726;52.388;9.986;2023-07-09T11:07:45;31.20;50.70
77582;DHT22;66726;52.388;9.986;2023-07-09T11:10:30;31.20;52.90
77582;DHT22;66726;52.388;9.986;2023-07-09T11:13:11;31.40;51.30
77582;DHT22;66726;52.388;9.986;2023-07-09T11:15:50;31.40;48.20
77582;DHT22;66726;52.388;9.986;2023-07-09T11:18:29;31.50;47.40
77582;DHT22;66726;52.388;9.986;2023-07-09T11:21:07;31.50;48.80
77582;DHT22;66726;52.388;9.986;2023-07-09T11:23:49;31.70;48.40
77582;DHT22;66726;52.388;9.986;2023-07-09T11:26:27;31.80;48.40
77582;DHT22;66726;52.388;9.986;2023-07-09T11:29:18;31.80;48.90
77582;DHT22;66726;52.388;9.986;2023-07-09T11:31:52;31.90;46.80
77582;DHT22;66726;52.388;9.986;2023-07-09T11:34:29;31.90;46.80
77582;DHT22;66726;52.388;9.986;2023-07-09T11:37:08;32.00;47.00
77582;DHT22;66726;52.388;9.986;2023-07-09T11:39:47;32.20;46.70
77582;DHT22;66726;52.388;9.986;2023-07-09T11:42:31;32.20;47.50
77582;DHT22;66726;52.388;9.986;2023-07-09T11:45:09;32.40;46.00
77582;DHT22;66726;52.388;9.986;2023-07-09T11:47:45;32.40;46.10
77582;DHT22;66726;52.388;9.986;2023-07-09T11:50:27;32.50;44.70
77582;DHT22;66726;52.388;9.986;2023-07-09T11:53:04;32.60;44.90
77582;DHT22;66726;52.388;9.986;2023-07-09T11:55:54;32.60;43.70
77582;DHT22;66726;52.388;9.986;2023-07-09T11:58:28;32.60;46.20
77582;DHT22;66726;52.388;9.986;2023-07-09T12:01:02;32.70;43.70
77582;DHT22;66726;52.388;9.986;2023-07-09T12:03:47;32.80;45.10
77582;DHT22;66726;52.388;9.986;2023-07-09T12:06:22;32.80;46.30
77582;DHT22;66726;52.388;9.986;2023-07-09T12:08:56;32.90;44.80
77582;DHT22;66726;52.388;9.986;2023-07-09T12:11:31;33.00;45.90
77582;DHT22;66726;52.388;9.986;2023-07-09T12:14:05;33.10;44.90
77582;DHT22;66726;52.388;9.986;2023-07-09T12:16:44;33.20;45.80
77582;DHT22;66726;52.388;9.986;2023-07-09T12:19:20;33.30;45.00
77582;DHT22;66726;52.388;9.986;2023-07-09T12:21:56;33.40;45.00
77582;DHT22;66726;52.388;9.986;2023-07-09T12:24:30;33.40;43.30
77582;DHT22;66726;52.388;9.986;2023-07-09T12:27:17;33.60;41.60
77582;DHT22;66726;52.388;9.986;2023-07-09T12:29:57;33.70;45.60
77582;DHT22;66726;52.388;9.986;2023-07-09T12:32:30;33.80;45.40
77582;DHT22;66726;52.388;9.986;2023-07-09T12:35:02;33.90;44.00
77582;DHT22;66726;52.388;9.986;2023-07-09T12:37:34;33.80;44.10
77582;DHT22;66726;52.388;9.986;2023-07-09T12:40:12;33.90;41.10
77582;DHT22;66726;52.388;9.986;2023-07-09T12:42:50;34.00;41.20
77582;DHT22;66726;52.388;9.986;2023-07-09T12:45:24;34.00;42.40
77582;DHT22;66726;52.388;9.986;2023-07-09T12:47:57;34.10;38.20
77582;DHT22;66726;52.388;9.986;2023-07-09T12:50:33;34.20;41.10
77582;DHT22;66726;52.388;9.986;2023-07-09T12:53:12;34.20;40.10
77582;DHT22;66726;52.388;9.986;2023-07-09T12:55:48;34.30;41.50
77582;DHT22;66726;52.388;9.986;2023-07-09T12:58:23;34.30;41.60
77582;DHT22;66726;52.388;9.986;2023-07-09T13:01:00;34.40;41.70
77582;DHT22;66726;52.388;9.986;2023-07-09T13:03:39;34.60;39.40
77582;DHT22;66726;52.388;9.986;2023-07-09T13:06:28;34.60;41.20
77582;DHT22;66726;52.388;9.986;2023-07-09T13:09:14;34.70;41.10
77582;DHT22;66726;52.388;9.986;2023-07-09T13:11:50;34.70;42.20
77582;DHT22;66726;52.388;9.986;2023-07-09T13:14:24;34.80;41.80
77582;DHT22;66726;52.388;9.986;2023-07-09T13:17:06;34.80;41.20
77582;DHT22;66726;52.388;9.986;2023-07-09T13:19:41;34.80;41.80
77582;DHT22;66726;52.388;9.986;2023-07-09T13:22:12;34.90;39.60
77582;DHT22;66726;52.388;9.986;2023-07-09T13:24:47;34.90;40.90
77582;DHT22;66726;52.388;9.986;2023-07-09T13:27:19;35.00;41.20
77582;DHT22;66726;52.388;9.986;2023-07-09T13:29:52;34.90;39.00
77582;DHT22;66726;52.388;9.986;2023-07-09T13:32:24;35.00;37.60
77582;DHT22;66726;52.388;9.986;2023-07-09T13:34:57;35.00;39.20
77582;DHT22;66726;52.388;9.986;2023-07-09T13:37:29;35.10;38.10
77582;DHT22;66726;52.388;9.986;2023-07-09T13:40:01;35.10;40.90
77582;DHT22;66726;52.388;9.986;2023-07-09T13:42:33;35.20;39.40
77582;DHT22;66726;52.388;9.986;2023-07-09T13:45:08;35.30;40.80
77582;DHT22;66726;52.388;9.986;2023-07-09T13:47:45;35.40;39.70
77582;DHT22;66726;52.388;9.986;2023-07-09T13:50:20;35.40;39.70
77582;DHT22;66726;52.388;9.986;2023-07-09T13:52:54;35.40;39.90
77582;DHT22;66726;52.388;9.986;2023-07-09T13:55:25;35.40;38.30
77582;DHT22;66726;52.388;9.986;2023-07-09T13:57:57;35.40;37.30
77582;DHT22;66726;52.388;9.986;2023-07-09T14:00:29;35.40;38.30
77582;DHT22;66726;52.388;9.986;2023-07-09T14:03:01;35.50;37.40
77582;DHT22;66726;52.388;9.986;2023-07-09T14:05:39;35.60;37.60
77582;DHT22;66726;52.388;9.986;2023-07-09T14:08:11;35.60;38.30
77582;DHT22;66726;52.388;9.986;2023-07-09T14:10:44;35.60;39.80
77582;DHT22;66726;52.388;9.986;2023-07-09T14:13:19;35.70;37.00
77582;DHT22;66726;52.388;9.986;2023-07-09T14:15:54;35.80;37.10
77582;DHT22;66726;52.388;9.986;2023-07-09T14:18:26;35.90;38.40
77582;DHT22;66726;52.388;9.986;2023-07-09T14:20:59;35.90;38.80
77582;DHT22;66726;52.388;9.986;2023-07-09T14:23:37;35.90;38.40
77582;DHT22;66726;52.388;9.986;2023-07-09T14:26:10;35.90;37.10
77582;DHT22;66726;52.388;9.986;2023-07-09T14:28:42;35.80;36.70
77582;DHT22;66726;52.388;9.986;2023-07-09T14:31:22;35.90;37.70
77582;DHT22;66726;52.388;9.986;2023-07-09T14:33:58;35.90;38.40
77582;DHT22;66726;52.388;9.986;2023-07-09T14:36:47;35.90;37.90
77582;DHT22;66726;52.388;9.986;2023-07-09T14:39:22;35.90;38.10
77582;DHT22;66726;52.388;9.986;2023-07-09T14:41:56;36.00;37.90
77582;DHT22;66726;52.388;9.986;2023-07-09T14:44:30;36.00;37.00
77582;DHT22;66726;52.388;9.986;2023-07-09T14:47:15;36.00;36.70
77582;DHT22;66726;52.388;9.986;2023-07-09T14:49:48;36.00;34.40
77582;DHT22;66726;52.388;9.986;2023-07-09T14:52:22;36.10;35.80
77582;DHT22;66726;52.388;9.986;2023-07-09T14:54:56;36.00;38.30
77582;DHT22;66726;52.388;9.986;2023-07-09T14:57:29;36.10;37.00
77582;DHT22;66726;52.388;9.986;2023-07-09T15:00:05;36.20;37.00
77582;DHT22;66726;52.388;9.986;2023-07-09T15:02:44;36.20;38.20
77582;DHT22;66726;52.388;9.986;2023-07-09T15:05:21;36.20;36.00
77582;DHT22;66726;52.388;9.986;2023-07-09T15:07:57;36.10;35.40
77582;DHT22;66726;52.388;9.986;2023-07-09T15:10:29;36.10;37.30
77582;DHT22;66726;52.388;9.986;2023-07-09T15:13:01;36.10;37.90
77582;DHT22;66726;52.388;9.986;2023-07-09T15:15:33;36.10;36.50
77582;DHT22;66726;52.388;9.986;2023-07-09T15:18:12;36.10;38.40
77582;DHT22;66726;52.388;9.986;2023-07-09T15:20:50;36.20;38.20
77582;DHT22;66726;52.388;9.986;2023-07-09T15:23:27;36.20;38.10
77582;DHT22;66726;52.388;9.986;2023-07-09T15:26:04;36.30;36.50
77582;DHT22;66726;52.388;9.986;2023-07-09T15:28:40;36.30;38.10
77582;DHT22;66726;52.388;9.986;2023-07-09T15:31:12;36.30;38.00
77582;DHT22;66726;52.388;9.986;2023-07-09T15:33:44;36.20;37.00
77582;DHT22;66726;52.388;9.986;2023-07-09T15:36:17;36.20;36.70
77582;DHT22;66726;52.388;9.986;2023-07-09T15:38:50;36.10;38.10
77582;DHT22;66726;52.388;9.986;2023-07-09T15:41:23;36.00;37.20
77582;DHT22;66726;52.388;9.986;2023-07-09T15:43:55;35.90;37.70
77582;DHT22;66726;52.388;9.986;2023-07-09T15:46:27;35.90;38.40
77582;DHT22;66726;52.388;9.986;2023-07-09T15:48:59;35.80;37.50
77582;DHT22;66726;52.388;9.986;2023-07-09T15:51:35;35.80;37.90
77582;DHT22;66726;52.388;9.986;2023-07-09T15:54:12;35.70;37.60
77582;DHT22;66726;52.388;9.986;2023-07-09T15:56:47;35.70;36.90
77582;DHT22;66726;52.388;9.986;2023-07-09T15:59:29;35.80;37.80
77582;DHT22;66726;52.388;9.986;2023-07-09T16:02:10;35.70;37.90
77582;DHT22;66726;52.388;9.986;2023-07-09T16:04:45;35.70;38.50
77582;DHT22;66726;52.388;9.986;2023-07-09T16:07:17;35.70;38.30
77582;DHT22;66726;52.388;9.986;2023-07-09T16:09:53;35.70;39.10
77582;DHT22;66726;52.388;9.986;2023-07-09T16:12:25;35.50;38.80
77582;DHT22;66726;52.388;9.986;2023-07-09T16:14:59;35.50;39.30
77582;DHT22;66726;52.388;9.986;2023-07-09T16:17:31;35.40;39.30
77582;DHT22;66726;52.388;9.986;2023-07-09T16:20:07;35.40;39.10
77582;DHT22;66726;52.388;9.986;2023-07-09T16:22:39;35.30;39.60